sensor_id;sensor_type;location;lat;lon;timestamp;P1;durP1;ratioP1;P2;durP2;ratioP2
20159;SDS011;50187;50.492;12.134;2023-04-01T00:00:56;0.60;;;0.60;;
20159;SDS011;50187;50.492;12.134;2023-04-01T00:03:43;0.57;;;0.57;;
20159;SDS011;50187;50.492;12.134;2023-04-01T00:06:29;0.57;;;0.50;;
20159;SDS011;50187;50.492;12.134;2023-04-01T00:09:15;1.03;;;0.63;;
20159;SDS011;50187;50.492;12.134;2023-04-01T00:12:00;0.80;;;0.77;;
20159;SDS011;50187;50.492;12.134;2023-04-01T00:14:45;0.83;;;0.57;;
20159;SDS011;50187;50.492;12.134;2023-04-01T00:17:31;0.60;;;0.60;;
20159;SDS011;50187;50.492;12.134;2023-04-01T00:20:16;0.70;;;0.70;;
20159;SDS011;50187;50.492;12.134;2023-04-01T00:23:02;0.60;;;0.60;;
20159;SDS011;50187;50.492;12.134;2023-04-01T00:25:48;0.60;;;0.60;;
20159;SDS011;50187;50.492;12.134;2023-04-01T00:28:34;0.60;;;0.60;;
20159;SDS011;50187;50.492;12.134;2023-04-01T00:31:20;1.07;;;0.60;;
20159;SDS011;50187;50.492;12.134;2023-04-01T00:34:06;0.80;;;0.80;;
20159;SDS011;50187;50.492;12.134;2023-04-01T00:36:51;0.83;;;0.70;;
20159;SDS011;50187;50.492;12.134;2023-04-01T00:39:37;0.60;;;0.60;;
20159;SDS011;50187;50.492;12.134;2023-04-01T00:42:23;0.67;;;0.63;;
20159;SDS011;50187;50.492;12.134;2023-04-01T00:48:27;0.60;;;0.60;;
20159;SDS011;50187;50.492;12.134;2023-04-01T00:51:17;0.47;;;0.47;;
20159;SDS011;50187;50.492;12.134;2023-04-01T00:54:05;0.70;;;0.70;;
20159;SDS011;50187;50.492;12.134;2023-04-01T00:59:44;0.90;;;0.70;;
20159;SDS011;50187;50.492;12.134;2023-04-01T01:02:32;0.50;;;0.50;;
20159;SDS011;50187;50.492;12.134;2023-04-01T01:05:19;0.83;;;0.80;;
20159;SDS011;50187;50.492;12.134;2023-04-01T01:11:42;0.67;;;0.67;;
20159;SDS011;50187;50.492;12.134;2023-04-01T01:14:34;0.50;;;0.50;;
20159;SDS011;50187;50.492;12.134;2023-04-01T01:17:36;0.87;;;0.70;;
20159;SDS011;50187;50.492;12.134;2023-04-01T01:35:47;0.50;;;0.50;;
20159;SDS011;50187;50.492;12.134;2023-04-01T01:38:38;0.50;;;0.50;;
20159;SDS011;50187;50.492;12.134;2023-04-01T01:41:25;0.40;;;0.40;;
20159;SDS011;50187;50.492;12.134;2023-04-01T01:44:12;0.50;;;0.50;;
20159;SDS011;50187;50.492;12.134;2023-04-01T01:47:00;0.77;;;0.67;;
20159;SDS011;50187;50.492;12.134;2023-04-01T01:49:46;0.60;;;0.60;;
20159;SDS011;50187;50.492;12.134;2023-04-01T01:52:34;0.50;;;0.50;;
20159;SDS011;50187;50.492;12.134;2023-04-01T01:55:27;0.57;;;0.57;;
20159;SDS011;50187;50.492;12.134;2023-04-01T01:58:20;0.80;;;0.80;;
20159;SDS011;50187;50.492;12.134;2023-04-01T02:01:25;1.20;;;0.50;;
20159;SDS011;50187;50.492;12.134;2023-04-01T02:04:17;0.40;;;0.40;;
20159;SDS011;50187;50.492;12.134;2023-04-01T02:07:04;1.00;;;0.77;;
20159;SDS011;50187;50.492;12.134;2023-04-01T02:09:53;0.40;;;0.40;;
20159;SDS011;50187;50.492;12.134;2023-04-01T02:12:39;0.63;;;0.63;;
20159;SDS011;50187;50.492;12.134;2023-04-01T02:15:29;0.40;;;0.40;;
20159;SDS011;50187;50.492;12.134;2023-04-01T02:18:18;0.60;;;0.60;;
20159;SDS011;50187;50.492;12.134;2023-04-01T02:21:05;0.40;;;0.40;;
20159;SDS011;50187;50.492;12.134;2023-04-01T02:23:52;0.93;;;0.57;;
20159;SDS011;50187;50.492;12.134;2023-04-01T02:26:41;0.43;;;0.43;;
20159;SDS011;50187;50.492;12.134;2023-04-01T02:29:26;0.60;;;0.60;;
20159;SDS011;50187;50.492;12.134;2023-04-01T02:32:12;0.60;;;0.60;;
20159;SDS011;50187;50.492;12.134;2023-04-01T02:34:59;0.60;;;0.60;;
20159;SDS011;50187;50.492;12.134;2023-04-01T02:37:48;0.47;;;0.47;;
20159;SDS011;50187;50.492;12.134;2023-04-01T02:40:45;0.60;;;0.50;;
20159;SDS011;50187;50.492;12.134;2023-04-01T02:43:32;0.77;;;0.70;;
20159;SDS011;50187;50.492;12.134;2023-04-01T02:46:18;0.30;;;0.30;;
20159;SDS011;50187;50.492;12.134;2023-04-01T02:49:04;0.40;;;0.40;;
20159;SDS011;50187;50.492;12.134;2023-04-01T02:51:50;0.60;;;0.60;;
20159;SDS011;50187;50.492;12.134;2023-04-01T02:54:36;0.40;;;0.40;;
20159;SDS011;50187;50.492;12.134;2023-04-01T02:57:21;0.60;;;0.60;;
20159;SDS011;50187;50.492;12.134;2023-04-01T03:00:07;1.37;;;0.57;;
20159;SDS011;50187;50.492;12.134;2023-04-01T03:02:56;0.53;;;0.53;;
20159;SDS011;50187;50.492;12.134;2023-04-01T03:05:41;0.60;;;0.60;;
20159;SDS011;50187;50.492;12.134;2023-04-01T03:08:27;0.50;;;0.50;;
20159;SDS011;50187;50.492;12.134;2023-04-01T03:11:12;0.67;;;0.60;;
20159;SDS011;50187;50.492;12.134;2023-04-01T03:13:58;0.90;;;0.60;;
20159;SDS011;50187;50.492;12.134;2023-04-01T03:16:43;0.47;;;0.47;;
20159;SDS011;50187;50.492;12.134;2023-04-01T03:19:29;0.67;;;0.63;;
20159;SDS011;50187;50.492;12.134;2023-04-01T03:22:15;0.40;;;0.40;;
20159;SDS011;50187;50.492;12.134;2023-04-01T03:25:01;0.60;;;0.60;;
20159;SDS011;50187;50.492;12.134;2023-04-01T03:27:48;0.50;;;0.50;;
20159;SDS011;50187;50.492;12.134;2023-04-01T03:30:33;0.77;;;0.50;;
20159;SDS011;50187;50.492;12.134;2023-04-01T03:33:19;0.40;;;0.40;;
20159;SDS011;50187;50.492;12.134;2023-04-01T03:36:05;0.53;;;0.53;;
20159;SDS011;50187;50.492;12.134;2023-04-01T03:38:51;0.40;;;0.40;;
20159;SDS011;50187;50.492;12.134;2023-04-01T03:41:43;1.50;;;0.50;;
20159;SDS011;50187;50.492;12.134;2023-04-01T03:44:32;0.50;;;0.50;;
20159;SDS011;50187;50.492;12.134;2023-04-01T03:47:18;0.70;;;0.70;;
20159;SDS011;50187;50.492;12.134;2023-04-01T03:50:04;0.73;;;0.73;;
20159;SDS011;50187;50.492;12.134;2023-04-01T03:52:50;0.87;;;0.50;;
20159;SDS011;50187;50.492;12.134;2023-04-01T03:55:36;0.53;;;0.53;;
20159;SDS011;50187;50.492;12.134;2023-04-01T03:58:22;0.60;;;0.60;;
20159;SDS011;50187;50.492;12.134;2023-04-01T04:01:18;0.50;;;0.50;;
20159;SDS011;50187;50.492;12.134;2023-04-01T04:04:10;0.63;;;0.63;;
20159;SDS011;50187;50.492;12.134;2023-04-01T04:06:58;0.67;;;0.50;;
20159;SDS011;50187;50.492;12.134;2023-04-01T04:09:44;1.10;;;0.50;;
20159;SDS011;50187;50.492;12.134;2023-04-01T04:12:29;0.53;;;0.53;;
20159;SDS011;50187;50.492;12.134;2023-04-01T04:15:14;1.10;;;1.00;;
20159;SDS011;50187;50.492;12.134;2023-04-01T04:18:00;0.97;;;0.57;;
20159;SDS011;50187;50.492;12.134;2023-04-01T04:20:45;0.60;;;0.60;;
20159;SDS011;50187;50.492;12.134;2023-04-01T04:23:36;0.73;;;0.67;;
20159;SDS011;50187;50.492;12.134;2023-04-01T04:26:22;0.60;;;0.60;;
20159;SDS011;50187;50.492;12.134;2023-04-01T04:29:13;0.60;;;0.60;;
20159;SDS011;50187;50.492;12.134;2023-04-01T04:31:59;0.40;;;0.40;;
20159;SDS011;50187;50.492;12.134;2023-04-01T04:34:45;0.50;;;0.50;;
20159;SDS011;50187;50.492;12.134;2023-04-01T04:37:31;0.60;;;0.60;;
20159;SDS011;50187;50.492;12.134;2023-04-01T04:40:16;1.53;;;0.60;;
20159;SDS011;50187;50.492;12.134;2023-04-01T04:43:01;0.50;;;0.50;;
20159;SDS011;50187;50.492;12.134;2023-04-01T04:45:47;0.43;;;0.43;;
20159;SDS011;50187;50.492;12.134;2023-04-01T04:48:32;0.53;;;0.53;;
20159;SDS011;50187;50.492;12.134;2023-04-01T04:51:19;0.40;;;0.40;;
20159;SDS011;50187;50.492;12.134;2023-04-01T04:54:05;0.40;;;0.40;;
20159;SDS011;50187;50.492;12.134;2023-04-01T04:57:04;0.43;;;0.43;;
20159;SDS011;50187;50.492;12.134;2023-04-01T04:59:55;0.40;;;0.40;;
20159;SDS011;50187;50.492;12.134;2023-04-01T05:03:10;0.60;;;0.50;;
20159;SDS011;50187;50.492;12.134;2023-04-01T05:05:57;0.43;;;0.43;;
20159;SDS011;50187;50.492;12.134;2023-04-01T05:08:43;0.30;;;0.30;;
20159;SDS011;50187;50.492;12.134;2023-04-01T05:11:29;0.40;;;0.40;;
20159;SDS011;50187;50.492;12.134;2023-04-01T05:14:16;0.60;;;0.60;;
20159;SDS011;50187;50.492;12.134;2023-04-01T05:17:11;0.73;;;0.60;;
20159;SDS011;50187;50.492;12.134;2023-04-01T05:19:58;0.40;;;0.40;;
20159;SDS011;50187;50.492;12.134;2023-04-01T05:22:43;0.40;;;0.40;;
20159;SDS011;50187;50.492;12.134;2023-04-01T05:25:29;0.33;;;0.33;;
20159;SDS011;50187;50.492;12.134;2023-04-01T05:28:15;0.50;;;0.50;;
20159;SDS011;50187;50.492;12.134;2023-04-01T05:31:03;0.43;;;0.40;;
20159;SDS011;50187;50.492;12.134;2023-04-01T05:33:56;0.70;;;0.50;;
20159;SDS011;50187;50.492;12.134;2023-04-01T05:36:42;0.30;;;0.30;;
20159;SDS011;50187;50.492;12.134;2023-04-01T05:39:27;0.47;;;0.40;;
20159;SDS011;50187;50.492;12.134;2023-04-01T05:42:12;0.47;;;0.47;;
20159;SDS011;50187;50.492;12.134;2023-04-01T05:44:59;0.60;;;0.57;;
20159;SDS011;50187;50.492;12.134;2023-04-01T05:48:07;0.30;;;0.30;;
20159;SDS011;50187;50.492;12.134;2023-04-01T05:50:57;0.47;;;0.47;;
20159;SDS011;50187;50.492;12.134;2023-04-01T05:53:42;0.57;;;0.57;;
20159;SDS011;50187;50.492;12.134;2023-04-01T05:56:28;0.40;;;0.40;;
20159;SDS011;50187;50.492;12.134;2023-04-01T05:59:14;0.77;;;0.70;;
20159;SDS011;50187;50.492;12.134;2023-04-01T06:01:59;0.53;;;0.53;;
20159;SDS011;50187;50.492;12.134;2023-04-01T06:04:45;0.60;;;0.60;;
20159;SDS011;50187;50.492;12.134;2023-04-01T06:07:30;0.50;;;0.50;;
20159;SDS011;50187;50.492;12.134;2023-04-01T06:10:17;0.40;;;0.40;;
20159;SDS011;50187;50.492;12.134;2023-04-01T06:13:25;0.50;;;0.50;;
20159;SDS011;50187;50.492;12.134;2023-04-01T06:16:44;0.77;;;0.53;;
20159;SDS011;50187;50.492;12.134;2023-04-01T06:26:14;0.67;;;0.53;;
20159;SDS011;50187;50.492;12.134;2023-04-01T06:38:37;0.43;;;0.40;;
20159;SDS011;50187;50.492;12.134;2023-04-01T06:44:33;0.70;;;0.70;;
20159;SDS011;50187;50.492;12.134;2023-04-01T06:48:02;0.40;;;0.40;;
20159;SDS011;50187;50.492;12.134;2023-04-01T06:54:58;0.40;;;0.40;;
20159;SDS011;50187;50.492;12.134;2023-04-01T07:01:22;0.70;;;0.63;;
20159;SDS011;50187;50.492;12.134;2023-04-01T07:04:20;0.40;;;0.40;;
20159;SDS011;50187;50.492;12.134;2023-04-01T07:10:33;0.30;;;0.30;;
20159;SDS011;50187;50.492;12.134;2023-04-01T07:13:41;0.30;;;0.30;;
20159;SDS011;50187;50.492;12.134;2023-04-01T07:16:39;0.40;;;0.37;;
20159;SDS011;50187;50.492;12.134;2023-04-01T07:19:39;0.30;;;0.30;;
20159;SDS011;50187;50.492;12.134;2023-04-01T07:22:42;0.50;;;0.50;;
20159;SDS011;50187;50.492;12.134;2023-04-01T07:26:00;1.53;;;0.70;;
20159;SDS011;50187;50.492;12.134;2023-04-01T07:28:52;0.40;;;0.40;;
20159;SDS011;50187;50.492;12.134;2023-04-01T07:32:07;0.50;;;0.50;;
20159;SDS011;50187;50.492;12.134;2023-04-01T07:35:11;0.90;;;0.70;;
20159;SDS011;50187;50.492;12.134;2023-04-01T07:38:31;0.43;;;0.43;;
20159;SDS011;50187;50.492;12.134;2023-04-01T07:41:49;0.63;;;0.63;;
20159;SDS011;50187;50.492;12.134;2023-04-01T07:45:01;0.47;;;0.47;;
20159;SDS011;50187;50.492;12.134;2023-04-01T07:51:27;0.80;;;0.53;;
20159;SDS011;50187;50.492;12.134;2023-04-01T07:54:18;0.50;;;0.50;;
20159;SDS011;50187;50.492;12.134;2023-04-01T07:57:20;0.40;;;0.40;;
20159;SDS011;50187;50.492;12.134;2023-04-01T08:00:16;0.60;;;0.60;;
20159;SDS011;50187;50.492;12.134;2023-04-01T08:03:54;0.60;;;0.57;;
20159;SDS011;50187;50.492;12.134;2023-04-01T08:23:22;0.63;;;0.40;;
20159;SDS011;50187;50.492;12.134;2023-04-01T08:26:13;0.50;;;0.50;;
20159;SDS011;50187;50.492;12.134;2023-04-01T08:29:10;0.47;;;0.47;;
20159;SDS011;50187;50.492;12.134;2023-04-01T08:32:00;0.57;;;0.50;;
20159;SDS011;50187;50.492;12.134;2023-04-01T08:34:50;0.67;;;0.63;;
20159;SDS011;50187;50.492;12.134;2023-04-01T08:38:12;0.40;;;0.40;;
20159;SDS011;50187;50.492;12.134;2023-04-01T08:50:54;0.30;;;0.30;;
20159;SDS011;50187;50.492;12.134;2023-04-01T08:54:06;0.57;;;0.57;;
20159;SDS011;50187;50.492;12.134;2023-04-01T09:03:36;0.37;;;0.37;;
20159;SDS011;50187;50.492;12.134;2023-04-01T09:06:37;0.33;;;0.33;;
20159;SDS011;50187;50.492;12.134;2023-04-01T09:22:10;0.80;;;0.60;;
20159;SDS011;50187;50.492;12.134;2023-04-01T09:25:23;0.60;;;0.60;;
20159;SDS011;50187;50.492;12.134;2023-04-01T09:28:27;0.50;;;0.50;;
20159;SDS011;50187;50.492;12.134;2023-04-01T09:50:51;1.80;;;0.60;;
20159;SDS011;50187;50.492;12.134;2023-04-01T10:01:01;0.67;;;0.60;;
20159;SDS011;50187;50.492;12.134;2023-04-01T10:10:54;0.83;;;0.37;;
20159;SDS011;50187;50.492;12.134;2023-04-01T10:13:23;0.67;;;0.60;;
20159;SDS011;50187;50.492;12.134;2023-04-01T10:32:23;0.43;;;0.43;;
20159;SDS011;50187;50.492;12.134;2023-04-01T10:42:02;1.93;;;0.73;;
20159;SDS011;50187;50.492;12.134;2023-04-01T10:54:43;0.47;;;0.47;;
20159;SDS011;50187;50.492;12.134;2023-04-01T10:58:00;0.53;;;0.30;;
20159;SDS011;50187;50.492;12.134;2023-04-01T11:01:22;0.63;;;0.40;;
20159;SDS011;50187;50.492;12.134;2023-04-01T11:11:15;0.67;;;0.67;;
20159;SDS011;50187;50.492;12.134;2023-04-01T11:29:57;0.40;;;0.40;;
20159;SDS011;50187;50.492;12.134;2023-04-01T11:42:25;0.50;;;0.50;;
20159;SDS011;50187;50.492;12.134;2023-04-01T11:45:55;0.70;;;0.60;;
20159;SDS011;50187;50.492;12.134;2023-04-01T11:55:50;0.87;;;0.50;;
20159;SDS011;50187;50.492;12.134;2023-04-01T11:58:58;0.30;;;0.30;;
20159;SDS011;50187;50.492;12.134;2023-04-01T12:08:00;0.33;;;0.33;;
20159;SDS011;50187;50.492;12.134;2023-04-01T12:11:00;0.83;;;0.60;;
20159;SDS011;50187;50.492;12.134;2023-04-01T12:17:07;9.53;;;1.00;;
20159;SDS011;50187;50.492;12.134;2023-04-01T12:23:20;2.47;;;0.80;;
20159;SDS011;50187;50.492;12.134;2023-04-01T12:29:07;3.90;;;0.90;;
20159;SDS011;50187;50.492;12.134;2023-04-01T12:31:59;1.63;;;0.80;;
20159;SDS011;50187;50.492;12.134;2023-04-01T12:41:30;1.50;;;0.97;;
20159;SDS011;50187;50.492;12.134;2023-04-01T12:53:40;0.40;;;0.40;;
20159;SDS011;50187;50.492;12.134;2023-04-01T13:00:12;0.70;;;0.70;;
20159;SDS011;50187;50.492;12.134;2023-04-01T13:03:27;0.50;;;0.40;;
20159;SDS011;50187;50.492;12.134;2023-04-01T13:06:38;0.70;;;0.70;;
20159;SDS011;50187;50.492;12.134;2023-04-01T13:19:07;0.80;;;0.67;;
20159;SDS011;50187;50.492;12.134;2023-04-01T13:22:03;0.50;;;0.50;;
20159;SDS011;50187;50.492;12.134;2023-04-01T13:27:57;0.70;;;0.70;;
20159;SDS011;50187;50.492;12.134;2023-04-01T13:43:49;4.13;;;0.90;;
20159;SDS011;50187;50.492;12.134;2023-04-01T13:50:04;0.40;;;0.40;;
20159;SDS011;50187;50.492;12.134;2023-04-01T13:53:09;0.93;;;0.60;;
20159;SDS011;50187;50.492;12.134;2023-04-01T14:02:31;0.60;;;0.60;;
20159;SDS011;50187;50.492;12.134;2023-04-01T14:05:51;0.60;;;0.60;;
20159;SDS011;50187;50.492;12.134;2023-04-01T14:08:51;0.37;;;0.37;;
20159;SDS011;50187;50.492;12.134;2023-04-01T14:12:50;1.67;;;0.57;;
20159;SDS011;50187;50.492;12.134;2023-04-01T14:15:29;0.80;;;0.80;;
20159;SDS011;50187;50.492;12.134;2023-04-01T14:21:27;0.60;;;0.60;;
20159;SDS011;50187;50.492;12.134;2023-04-01T14:24:42;0.60;;;0.60;;
20159;SDS011;50187;50.492;12.134;2023-04-01T14:30:51;2.57;;;0.83;;
20159;SDS011;50187;50.492;12.134;2023-04-01T14:43:20;2.30;;;0.77;;
20159;SDS011;50187;50.492;12.134;2023-04-01T14:46:51;0.63;;;0.60;;
20159;SDS011;50187;50.492;12.134;2023-04-01T14:49:46;2.17;;;0.80;;
20159;SDS011;50187;50.492;12.134;2023-04-01T14:52:35;2.30;;;0.83;;
20159;SDS011;50187;50.492;12.134;2023-04-01T14:58:13;0.60;;;0.60;;
20159;SDS011;50187;50.492;12.134;2023-04-01T15:04:02;1.43;;;0.83;;
20159;SDS011;50187;50.492;12.134;2023-04-01T15:10:51;1.50;;;0.50;;
20159;SDS011;50187;50.492;12.134;2023-04-01T15:14:08;1.63;;;0.80;;
20159;SDS011;50187;50.492;12.134;2023-04-01T15:20:29;1.03;;;0.47;;
20159;SDS011;50187;50.492;12.134;2023-04-01T15:23:39;0.77;;;0.77;;
20159;SDS011;50187;50.492;12.134;2023-04-01T15:36:25;1.50;;;0.90;;
20159;SDS011;50187;50.492;12.134;2023-04-01T15:39:24;9.00;;;1.20;;
20159;SDS011;50187;50.492;12.134;2023-04-01T15:42:25;5.17;;;1.67;;
20159;SDS011;50187;50.492;12.134;2023-04-01T15:45:30;7.23;;;1.33;;
20159;SDS011;50187;50.492;12.134;2023-04-01T15:54:27;2.47;;;1.03;;
20159;SDS011;50187;50.492;12.134;2023-04-01T15:57:22;2.00;;;0.90;;
20159;SDS011;50187;50.492;12.134;2023-04-01T16:09:02;2.37;;;1.10;;
20159;SDS011;50187;50.492;12.134;2023-04-01T16:15:08;1.17;;;1.00;;
20159;SDS011;50187;50.492;12.134;2023-04-01T16:21:34;1.03;;;0.93;;
20159;SDS011;50187;50.492;12.134;2023-04-01T16:40:02;0.70;;;0.70;;
20159;SDS011;50187;50.492;12.134;2023-04-01T16:42:57;0.73;;;0.70;;
20159;SDS011;50187;50.492;12.134;2023-04-01T16:52:34;1.37;;;0.73;;
20159;SDS011;50187;50.492;12.134;2023-04-01T17:02:01;1.67;;;0.97;;
20159;SDS011;50187;50.492;12.134;2023-04-01T17:05:15;1.43;;;0.77;;
20159;SDS011;50187;50.492;12.134;2023-04-01T17:10:53;0.60;;;0.60;;
20159;SDS011;50187;50.492;12.134;2023-04-01T17:20:14;0.70;;;0.70;;
20159;SDS011;50187;50.492;12.134;2023-04-01T17:23:17;0.60;;;0.60;;
20159;SDS011;50187;50.492;12.134;2023-04-01T17:26:23;1.03;;;0.63;;
20159;SDS011;50187;50.492;12.134;2023-04-01T17:32:21;0.70;;;0.70;;
20159;SDS011;50187;50.492;12.134;2023-04-01T17:35:27;0.67;;;0.67;;
20159;SDS011;50187;50.492;12.134;2023-04-01T17:38:34;0.60;;;0.60;;
20159;SDS011;50187;50.492;12.134;2023-04-01T17:47:17;0.90;;;0.90;;
20159;SDS011;50187;50.492;12.134;2023-04-01T17:50:14;0.50;;;0.50;;
20159;SDS011;50187;50.492;12.134;2023-04-01T17:56:45;1.07;;;0.70;;
20159;SDS011;50187;50.492;12.134;2023-04-01T17:59:45;0.50;;;0.50;;
20159;SDS011;50187;50.492;12.134;2023-04-01T18:15:08;1.10;;;0.80;;
20159;SDS011;50187;50.492;12.134;2023-04-01T18:21:18;1.07;;;0.60;;
20159;SDS011;50187;50.492;12.134;2023-04-01T18:27:15;1.73;;;0.70;;
20159;SDS011;50187;50.492;12.134;2023-04-01T18:33:09;1.23;;;0.70;;
20159;SDS011;50187;50.492;12.134;2023-04-01T18:39:07;0.73;;;0.60;;
20159;SDS011;50187;50.492;12.134;2023-04-01T18:42:07;1.20;;;1.10;;
20159;SDS011;50187;50.492;12.134;2023-04-01T18:44:56;0.80;;;0.73;;
20159;SDS011;50187;50.492;12.134;2023-04-01T19:00:46;0.70;;;0.70;;
20159;SDS011;50187;50.492;12.134;2023-04-01T19:03:48;0.77;;;0.77;;
20159;SDS011;50187;50.492;12.134;2023-04-01T19:09:45;0.70;;;0.70;;
20159;SDS011;50187;50.492;12.134;2023-04-01T19:15:44;0.60;;;0.60;;
20159;SDS011;50187;50.492;12.134;2023-04-01T19:18:39;0.97;;;0.60;;
20159;SDS011;50187;50.492;12.134;2023-04-01T19:21:38;2.00;;;0.67;;
20159;SDS011;50187;50.492;12.134;2023-04-01T19:27:41;0.60;;;0.60;;
20159;SDS011;50187;50.492;12.134;2023-04-01T19:45:43;0.60;;;0.60;;
20159;SDS011;50187;50.492;12.134;2023-04-01T19:48:41;0.67;;;0.67;;
20159;SDS011;50187;50.492;12.134;2023-04-01T20:00:47;0.80;;;0.73;;
20159;SDS011;50187;50.492;12.134;2023-04-01T20:03:50;0.73;;;0.73;;
20159;SDS011;50187;50.492;12.134;2023-04-01T20:12:47;0.63;;;0.63;;
20159;SDS011;50187;50.492;12.134;2023-04-01T20:15:40;0.90;;;0.90;;
20159;SDS011;50187;50.492;12.134;2023-04-01T20:18:45;0.47;;;0.47;;
20159;SDS011;50187;50.492;12.134;2023-04-01T20:21:40;1.00;;;0.90;;
20159;SDS011;50187;50.492;12.134;2023-04-01T20:24:33;0.63;;;0.63;;
20159;SDS011;50187;50.492;12.134;2023-04-01T20:28:09;0.57;;;0.57;;
20159;SDS011;50187;50.492;12.134;2023-04-01T20:30:50;0.70;;;0.70;;
20159;SDS011;50187;50.492;12.134;2023-04-01T20:39:45;0.60;;;0.60;;
20159;SDS011;50187;50.492;12.134;2023-04-01T20:48:51;0.70;;;0.60;;
20159;SDS011;50187;50.492;12.134;2023-04-01T20:51:38;1.17;;;0.67;;
20159;SDS011;50187;50.492;12.134;2023-04-01T20:57:36;0.93;;;0.87;;
20159;SDS011;50187;50.492;12.134;2023-04-01T21:00:33;0.80;;;0.80;;
20159;SDS011;50187;50.492;12.134;2023-04-01T21:03:33;1.00;;;0.87;;
20159;SDS011;50187;50.492;12.134;2023-04-01T21:06:32;0.87;;;0.87;;
20159;SDS011;50187;50.492;12.134;2023-04-01T21:16:06;1.10;;;1.00;;
20159;SDS011;50187;50.492;12.134;2023-04-01T21:31:42;0.90;;;0.90;;
20159;SDS011;50187;50.492;12.134;2023-04-01T21:34:45;0.63;;;0.63;;
20159;SDS011;50187;50.492;12.134;2023-04-01T21:40:47;1.10;;;0.97;;
20159;SDS011;50187;50.492;12.134;2023-04-01T21:43:48;1.00;;;1.00;;
20159;SDS011;50187;50.492;12.134;2023-04-01T21:53:03;1.03;;;1.03;;
20159;SDS011;50187;50.492;12.134;2023-04-01T21:56:43;2.70;;;1.30;;
20159;SDS011;50187;50.492;12.134;2023-04-01T22:02:45;1.43;;;1.33;;
20159;SDS011;50187;50.492;12.134;2023-04-01T22:11:14;1.10;;;1.00;;
20159;SDS011;50187;50.492;12.134;2023-04-01T22:14:12;1.00;;;1.00;;
20159;SDS011;50187;50.492;12.134;2023-04-01T22:17:27;1.30;;;1.20;;
20159;SDS011;50187;50.492;12.134;2023-04-01T22:29:06;1.40;;;1.20;;
20159;SDS011;50187;50.492;12.134;2023-04-01T22:31:57;1.67;;;1.30;;
20159;SDS011;50187;50.492;12.134;2023-04-01T22:37:58;1.27;;;1.17;;
20159;SDS011;50187;50.492;12.134;2023-04-01T22:41:02;1.37;;;1.10;;
20159;SDS011;50187;50.492;12.134;2023-04-01T22:43:57;1.30;;;1.20;;
20159;SDS011;50187;50.492;12.134;2023-04-01T22:46:51;1.40;;;1.30;;
20159;SDS011;50187;50.492;12.134;2023-04-01T22:49:59;1.20;;;1.10;;
20159;SDS011;50187;50.492;12.134;2023-04-01T22:53:08;1.10;;;1.10;;
20159;SDS011;50187;50.492;12.134;2023-04-01T22:56:00;1.57;;;1.47;;
20159;SDS011;50187;50.492;12.134;2023-04-01T23:01:59;1.40;;;1.30;;
20159;SDS011;50187;50.492;12.134;2023-04-01T23:04:54;1.00;;;1.00;;
20159;SDS011;50187;50.492;12.134;2023-04-01T23:07:48;1.30;;;1.30;;
20159;SDS011;50187;50.492;12.134;2023-04-01T23:10:42;1.23;;;1.13;;
20159;SDS011;50187;50.492;12.134;2023-04-01T23:13:34;1.30;;;1.23;;
20159;SDS011;50187;50.492;12.134;2023-04-01T23:16:25;1.20;;;1.20;;
20159;SDS011;50187;50.492;12.134;2023-04-01T23:22:36;1.30;;;1.20;;
20159;SDS011;50187;50.492;12.134;2023-04-01T23:25:31;1.40;;;1.30;;
20159;SDS011;50187;50.492;12.134;2023-04-01T23:28:41;1.20;;;1.10;;
20159;SDS011;50187;50.492;12.134;2023-04-01T23:31:34;1.47;;;1.27;;
20159;SDS011;50187;50.492;12.134;2023-04-01T23:34:26;1.10;;;1.10;;
20159;SDS011;50187;50.492;12.134;2023-04-01T23:37:13;1.20;;;1.10;;
20159;SDS011;50187;50.492;12.134;2023-04-01T23:40:00;1.33;;;1.23;;
20159;SDS011;50187;50.492;12.134;2023-04-01T23:42:46;0.97;;;0.97;;
20159;SDS011;50187;50.492;12.134;2023-04-01T23:45:31;1.93;;;1.30;;
20159;SDS011;50187;50.492;12.134;2023-04-01T23:48:17;0.90;;;0.90;;
20159;SDS011;50187;50.492;12.134;2023-04-01T23:51:20;1.43;;;1.20;;
20159;SDS011;50187;50.492;12.134;2023-04-01T23:54:13;1.40;;;1.30;;
20159;SDS011;50187;50.492;12.134;2023-04-01T23:57:04;1.03;;;1.03;;
